Time;durP1;ratioP1;P1;durP2;ratioP2;P2;SDS_P1;SDS_P2;PMS_P1;PMS_P2;Temp;Humidity;BMP_temperature;BMP_pressure;BME280_temperature;BME280_humidity;BME280_pressure;Samples;Min_cycle;Max_cycle;Signal;HPM_P1;HPM_P2
2023/04/25 00:01:46;;;;;;;18.95;4.03;;;7.60;99.90;;;;;;5069897;28;20461;-76
2023/04/25 00:04:11;;;;;;;19.27;3.58;;;7.60;99.90;;;;;;5070299;28;20817;-77
2023/04/25 00:06:37;;;;;;;20.35;3.97;;;7.60;99.90;;;;;;5071600;28;20478;-77
2023/04/25 00:09:07;;;;;;;17.67;3.47;;;7.60;99.90;;;;;;5093465;28;21105;-76
2023/04/25 00:11:33;;;;;;;20.30;3.92;;;7.60;99.90;;;;;;5053220;28;20411;-76
2023/04/25 00:13:59;;;;;;;24.35;4.60;;;7.60;99.90;;;;;;5069896;28;20424;-76
2023/04/25 00:16:26;;;;;;;21.17;3.95;;;7.50;99.90;;;;;;5069625;28;20438;-77
2023/04/25 00:18:53;;;;;;;19.20;3.72;;;7.60;99.90;;;;;;5069438;28;20490;-76
2023/04/25 00:21:19;;;;;;;18.52;4.10;;;7.60;99.90;;;;;;5069187;28;20423;-76
2023/04/25 00:23:45;;;;;;;20.58;3.45;;;7.50;99.90;;;;;;5069748;28;20494;-77
2023/04/25 00:26:12;;;;;;;15.07;3.10;;;7.50;99.90;;;;;;5069987;28;20415;-76
2023/04/25 00:28:38;;;;;;;15.13;3.42;;;7.50;99.90;;;;;;5053456;28;20412;-76
2023/04/25 00:31:04;;;;;;;15.95;3.40;;;7.50;99.90;;;;;;5068753;28;20446;-76
2023/04/25 00:33:29;;;;;;;14.83;2.80;;;7.50;99.90;;;;;;5052735;28;20898;-76
2023/04/25 00:35:55;;;;;;;15.93;2.63;;;7.50;99.90;;;;;;5069198;28;20467;-77
2023/04/25 00:38:21;;;;;;;13.38;2.95;;;7.50;99.90;;;;;;5069925;28;20437;-77
2023/04/25 00:40:47;;;;;;;14.48;3.00;;;7.50;99.90;;;;;;5052117;28;20979;-77
2023/04/25 00:43:13;;;;;;;13.03;2.47;;;7.50;99.90;;;;;;5068565;28;20399;-76
2023/04/25 00:45:39;;;;;;;14.93;2.63;;;7.40;99.90;;;;;;5068937;28;20434;-77
2023/04/25 00:48:05;;;;;;;12.37;2.90;;;7.50;99.90;;;;;;5069748;28;20961;-77
2023/04/25 00:50:32;;;;;;;12.30;2.50;;;7.40;99.90;;;;;;5069860;28;20629;-76
2023/04/25 00:52:58;;;;;;;14.97;3.03;;;7.40;99.90;;;;;;5070324;28;20426;-77
2023/04/25 00:55:24;;;;;;;14.40;2.50;;;7.40;99.90;;;;;;5068636;28;20530;-76
2023/04/25 00:57:50;;;;;;;13.00;2.78;;;7.40;99.90;;;;;;5069090;28;20439;-76
2023/04/25 01:00:16;;;;;;;16.17;2.92;;;7.40;99.90;;;;;;5069948;28;20454;-76
2023/04/25 01:02:43;;;;;;;17.30;3.10;;;7.40;99.90;;;;;;5051768;28;20468;-77
2023/04/25 01:05:08;;;;;;;14.93;2.70;;;7.30;99.90;;;;;;5068683;28;20411;-76
2023/04/25 01:07:35;;;;;;;16.93;2.33;;;7.30;99.90;;;;;;5068758;28;20462;-76
2023/04/25 01:10:01;;;;;;;12.13;2.40;;;7.30;99.90;;;;;;5068805;28;20503;-76
2023/04/25 01:12:26;;;;;;;12.80;2.38;;;7.20;99.90;;;;;;5068954;28;20419;-76
2023/04/25 01:14:52;;;;;;;16.05;2.90;;;7.20;99.90;;;;;;5051574;28;20801;-77
2023/04/25 01:17:18;;;;;;;13.40;2.47;;;7.20;99.90;;;;;;5061946;28;20427;-76
2023/04/25 01:19:45;;;;;;;16.23;2.65;;;7.20;99.90;;;;;;5062729;28;20445;-77
2023/04/25 01:22:11;;;;;;;15.02;2.55;;;7.10;99.90;;;;;;5068530;28;20412;-77
2023/04/25 01:24:37;;;;;;;18.58;3.22;;;7.10;99.90;;;;;;5051791;28;20423;-77
2023/04/25 01:27:03;;;;;;;14.33;2.87;;;7.10;99.90;;;;;;5068345;28;20407;-76
2023/04/25 01:29:30;;;;;;;15.60;2.75;;;7.00;99.90;;;;;;5068593;28;20418;-77
2023/04/25 01:31:58;;;;;;;13.60;3.42;;;7.10;99.90;;;;;;5068709;28;20486;-77
2023/04/25 01:34:24;;;;;;;16.45;2.55;;;7.00;99.90;;;;;;5067707;28;20497;-77
2023/04/25 01:36:50;;;;;;;16.00;2.63;;;7.00;99.90;;;;;;5068418;28;20414;-77
2023/04/25 01:39:17;;;;;;;14.98;2.63;;;7.00;99.90;;;;;;5069883;28;20811;-77
2023/04/25 01:41:43;;;;;;;20.45;2.95;;;7.00;99.90;;;;;;5068383;28;20754;-77
2023/04/25 01:44:09;;;;;;;14.07;2.53;;;6.90;99.90;;;;;;5068330;28;20422;-77
2023/04/25 01:46:35;;;;;;;15.02;3.13;;;6.90;99.90;;;;;;5048612;28;20506;-76
2023/04/25 01:49:01;;;;;;;16.80;2.80;;;6.90;99.90;;;;;;5048316;28;20448;-77
2023/04/25 01:51:26;;;;;;;16.50;2.75;;;6.90;99.90;;;;;;5063057;28;20408;-77
2023/04/25 01:53:52;;;;;;;16.20;3.30;;;6.90;99.90;;;;;;5069003;28;20477;-77
2023/04/25 01:56:18;;;;;;;13.85;2.42;;;6.80;99.90;;;;;;5067865;28;20407;-77
2023/04/25 01:58:45;;;;;;;13.43;2.30;;;6.80;99.90;;;;;;5051101;28;20411;-77
2023/04/25 02:01:10;;;;;;;12.68;1.90;;;6.80;99.90;;;;;;5067712;28;20411;-77
2023/04/25 02:03:36;;;;;;;11.13;1.85;;;6.90;99.90;;;;;;5064496;28;20575;-77
2023/04/25 02:06:02;;;;;;;10.10;1.90;;;6.80;99.90;;;;;;5058558;28;20442;-77
2023/04/25 02:08:27;;;;;;;9.27;1.80;;;6.80;99.90;;;;;;5054359;28;20408;-77
2023/04/25 02:10:53;;;;;;;12.67;1.80;;;6.80;99.90;;;;;;5068343;28;20432;-77
2023/04/25 02:13:19;;;;;;;13.75;2.03;;;6.80;99.90;;;;;;5068359;28;20454;-77
2023/04/25 02:15:44;;;;;;;14.27;2.30;;;6.70;99.90;;;;;;5067731;28;20783;-77
2023/04/25 02:18:11;;;;;;;13.57;2.22;;;6.70;99.90;;;;;;5067486;28;20419;-76
2023/04/25 02:20:37;;;;;;;12.68;2.22;;;6.60;99.90;;;;;;5050691;28;20412;-77
2023/04/25 02:23:03;;;;;;;13.57;2.40;;;6.60;99.90;;;;;;5066704;28;20430;-77
2023/04/25 02:25:29;;;;;;;15.05;3.00;;;6.50;99.90;;;;;;5067573;28;20410;-77
2023/04/25 02:27:54;;;;;;;13.70;2.70;;;6.40;99.90;;;;;;5061590;28;20770;-76
2023/04/25 02:30:20;;;;;;;11.93;2.67;;;6.40;99.90;;;;;;5068779;28;21106;-76
2023/04/25 02:32:46;;;;;;;9.87;1.80;;;6.40;99.90;;;;;;5067781;28;20400;-77
2023/04/25 02:35:11;;;;;;;10.00;2.05;;;6.40;99.90;;;;;;5066998;28;20864;-76
2023/04/25 02:37:39;;;;;;;11.00;1.87;;;6.40;99.90;;;;;;5066507;28;20420;-77
2023/04/25 02:40:05;;;;;;;13.88;2.45;;;6.40;99.90;;;;;;5066946;28;20412;-77
2023/04/25 02:42:31;;;;;;;11.35;2.20;;;6.40;99.90;;;;;;5050763;28;20455;-77
2023/04/25 02:44:57;;;;;;;13.25;2.15;;;6.40;99.90;;;;;;5062174;28;20474;-76
2023/04/25 02:47:22;;;;;;;9.40;1.63;;;6.40;99.90;;;;;;5064639;28;20418;-76
2023/04/25 02:49:48;;;;;;;6.43;1.60;;;6.30;99.90;;;;;;5064672;28;20415;-77
2023/04/25 02:52:14;;;;;;;6.60;1.52;;;6.20;99.90;;;;;;5067405;28;20403;-76
2023/04/25 02:54:40;;;;;;;11.33;1.80;;;6.20;99.90;;;;;;5058101;28;20501;-76
2023/04/25 02:57:06;;;;;;;11.48;1.88;;;6.10;99.90;;;;;;5066209;28;20411;-76
2023/04/25 02:59:34;;;;;;;8.52;1.55;;;6.10;99.90;;;;;;5067007;28;20424;-76
2023/04/25 03:02:00;;;;;;;10.48;1.90;;;6.20;99.90;;;;;;5068341;28;20809;-76
2023/04/25 03:04:25;;;;;;;8.82;1.60;;;6.10;99.90;;;;;;5066916;28;20408;-77
2023/04/25 03:06:51;;;;;;;16.63;2.22;;;6.20;99.90;;;;;;5066779;28;20461;-76
2023/04/25 03:09:17;;;;;;;11.87;1.90;;;6.20;99.90;;;;;;5066428;28;20408;-76
2023/04/25 03:11:44;;;;;;;10.63;2.10;;;6.20;99.90;;;;;;5066959;28;20787;-76
2023/04/25 03:14:10;;;;;;;9.25;1.63;;;6.20;99.90;;;;;;5066219;28;20435;-76
2023/04/25 03:16:36;;;;;;;9.10;1.63;;;6.20;99.90;;;;;;5066372;28;20399;-76
2023/04/25 03:19:02;;;;;;;5.30;1.20;;;6.10;99.90;;;;;;5066065;28;20399;-76
2023/04/25 03:21:28;;;;;;;7.43;1.00;;;6.10;99.90;;;;;;5066954;28;21108;-77
2023/04/25 03:23:54;;;;;;;8.05;1.00;;;6.10;99.90;;;;;;5065923;28;20403;-77
2023/04/25 03:26:20;;;;;;;5.43;1.02;;;6.20;99.90;;;;;;5066392;28;20408;-77
2023/04/25 03:28:45;;;;;;;7.95;1.38;;;6.20;99.90;;;;;;5066292;28;20407;-77
2023/04/25 03:31:11;;;;;;;7.97;1.40;;;6.10;99.90;;;;;;5065934;28;20762;-76
2023/04/25 03:33:37;;;;;;;8.43;1.73;;;6.10;99.90;;;;;;5066224;28;20838;-76
2023/04/25 03:36:03;;;;;;;9.50;1.63;;;6.10;99.90;;;;;;5050078;28;20483;-76
2023/04/25 03:38:28;;;;;;;8.97;1.90;;;6.00;99.90;;;;;;5053676;28;20457;-77
2023/04/25 03:40:56;;;;;;;9.97;1.70;;;6.00;99.90;;;;;;5067784;28;20399;-76
2023/04/25 03:43:21;;;;;;;6.82;1.60;;;5.90;99.90;;;;;;5049221;28;20400;-76
2023/04/25 03:45:47;;;;;;;10.27;1.60;;;5.80;99.90;;;;;;5067888;28;20425;-76
2023/04/25 03:48:13;;;;;;;9.90;1.85;;;5.80;99.90;;;;;;5066009;28;20419;-76
2023/04/25 03:50:38;;;;;;;14.87;2.33;;;5.70;99.90;;;;;;5066563;28;20901;-76
2023/04/25 03:53:04;;;;;;;11.25;1.85;;;5.70;99.90;;;;;;5065838;28;20807;-77
2023/04/25 03:55:30;;;;;;;11.10;2.10;;;5.70;99.90;;;;;;5056709;28;20528;-77
2023/04/25 03:57:57;;;;;;;9.48;1.75;;;5.70;99.90;;;;;;5045543;28;20423;-76
2023/04/25 04:00:23;;;;;;;13.82;2.30;;;5.70;99.90;;;;;;5065155;28;20682;-76
2023/04/25 04:02:49;;;;;;;9.65;1.77;;;5.70;99.90;;;;;;5065419;28;20407;-76
2023/04/25 04:05:15;;;;;;;13.73;2.40;;;5.80;99.90;;;;;;5049089;28;20924;-77
2023/04/25 04:07:42;;;;;;;14.45;2.42;;;5.70;99.90;;;;;;5065434;28;20407;-77
2023/04/25 04:10:09;;;;;;;14.73;1.77;;;5.80;99.90;;;;;;5066570;28;20415;-77
2023/04/25 04:12:35;;;;;;;11.85;2.30;;;5.80;99.90;;;;;;5064859;28;20399;-77
2023/04/25 04:15:03;;;;;;;9.73;1.50;;;5.90;99.90;;;;;;5064911;28;20839;-77
2023/04/25 04:17:29;;;;;;;9.27;1.60;;;5.90;99.90;;;;;;5064995;28;20404;-77
2023/04/25 04:19:55;;;;;;;8.77;1.55;;;5.90;99.90;;;;;;5065141;28;20407;-77
2023/04/25 04:22:20;;;;;;;8.48;1.83;;;5.90;99.90;;;;;;5047562;28;20395;-76
2023/04/25 04:24:46;;;;;;;9.93;1.60;;;6.00;99.90;;;;;;5065442;28;20488;-77
2023/04/25 04:27:12;;;;;;;10.50;1.63;;;6.00;99.90;;;;;;5048310;28;20507;-77
2023/04/25 04:29:38;;;;;;;9.85;1.70;;;6.00;99.90;;;;;;5065090;28;20412;-77
2023/04/25 04:32:04;;;;;;;8.43;1.40;;;5.90;99.90;;;;;;5063878;28;20408;-77
2023/04/25 04:34:30;;;;;;;8.52;1.83;;;5.90;99.90;;;;;;5064992;28;20808;-77
2023/04/25 04:36:56;;;;;;;8.93;1.38;;;5.90;99.90;;;;;;5064522;28;20453;-76
2023/04/25 04:39:22;;;;;;;11.35;1.40;;;5.90;99.90;;;;;;5063508;28;20415;-75
2023/04/25 04:41:48;;;;;;;9.75;1.77;;;5.90;99.90;;;;;;5065365;28;20739;-76
2023/04/25 04:44:14;;;;;;;7.90;1.30;;;5.90;99.90;;;;;;5068349;28;20422;-75
2023/04/25 04:46:41;;;;;;;10.02;1.65;;;5.90;99.90;;;;;;5068771;28;20794;-77
2023/04/25 04:49:09;;;;;;;8.98;1.55;;;5.90;99.90;;;;;;5069602;28;20426;-77
2023/04/25 04:51:34;;;;;;;7.70;1.20;;;5.90;99.90;;;;;;5068807;28;20510;-75
2023/04/25 04:54:02;;;;;;;7.35;1.38;;;6.00;99.90;;;;;;5068877;28;20648;-76
2023/04/25 04:56:30;;;;;;;7.03;1.55;;;6.00;99.90;;;;;;5055868;28;20805;-76
2023/04/25 04:58:59;;;;;;;8.52;1.27;;;5.90;99.90;;;;;;5069200;28;20506;-75
2023/04/25 05:01:26;;;;;;;7.50;1.70;;;6.00;99.90;;;;;;5068437;28;20977;-75
2023/04/25 05:03:52;;;;;;;8.15;1.10;;;5.90;99.90;;;;;;5069700;28;20426;-75
2023/04/25 05:06:19;;;;;;;6.22;1.20;;;5.90;99.90;;;;;;5051893;28;20495;-76
2023/04/25 05:08:44;;;;;;;7.88;1.23;;;5.90;99.90;;;;;;5068651;28;20404;-76
2023/04/25 05:11:11;;;;;;;6.50;1.20;;;5.90;99.90;;;;;;5068676;28;20411;-75
2023/04/25 05:13:36;;;;;;;10.40;1.50;;;6.00;99.90;;;;;;5068768;28;20673;-75
2023/04/25 05:16:02;;;;;;;8.20;1.67;;;6.10;99.90;;;;;;5067382;28;20403;-75
2023/04/25 05:18:28;;;;;;;9.10;1.60;;;6.10;99.90;;;;;;5068735;28;20408;-75
2023/04/25 05:20:53;;;;;;;8.60;1.80;;;6.20;99.90;;;;;;5067908;28;20404;-75
2023/04/25 05:23:19;;;;;;;11.07;1.52;;;6.20;99.90;;;;;;5051359;28;20407;-75
2023/04/25 05:25:45;;;;;;;7.10;1.33;;;6.20;99.90;;;;;;5069489;28;20675;-75
2023/04/25 05:28:13;;;;;;;7.70;1.27;;;6.20;99.90;;;;;;5068952;28;20411;-76
2023/04/25 05:30:39;;;;;;;9.77;1.40;;;6.20;99.90;;;;;;5068180;28;20408;-75
2023/04/25 05:33:05;;;;;;;11.40;1.50;;;6.20;99.90;;;;;;5070462;28;20405;-76
2023/04/25 05:35:31;;;;;;;7.60;1.03;;;6.20;99.90;;;;;;5054415;28;20500;-75
2023/04/25 05:37:56;;;;;;;8.57;1.58;;;6.20;99.90;;;;;;5071697;28;20583;-75
2023/04/25 05:40:22;;;;;;;12.05;1.88;;;6.30;99.90;;;;;;5070833;28;20489;-75
2023/04/25 05:42:48;;;;;;;11.20;1.77;;;6.30;99.90;;;;;;5087954;28;20756;-76
2023/04/25 05:45:13;;;;;;;8.48;1.30;;;6.40;99.90;;;;;;5070883;28;20406;-76
2023/04/25 05:47:39;;;;;;;10.83;1.60;;;6.50;99.90;;;;;;5071575;28;20406;-75
2023/04/25 05:50:05;;;;;;;10.73;1.48;;;6.60;99.90;;;;;;5071296;28;20413;-76
2023/04/25 05:52:31;;;;;;;8.40;1.47;;;6.60;99.90;;;;;;5071500;28;20455;-75
2023/04/25 05:54:57;;;;;;;8.00;1.67;;;6.60;99.90;;;;;;5066013;28;20431;-76
2023/04/25 05:57:24;;;;;;;8.60;1.30;;;6.70;99.90;;;;;;5062638;28;20760;-75
2023/04/25 05:59:50;;;;;;;7.60;1.75;;;6.70;99.90;;;;;;5071055;28;20492;-75
2023/04/25 06:02:16;;;;;;;14.37;1.63;;;6.70;99.90;;;;;;5071770;28;20480;-76
2023/04/25 06:04:41;;;;;;;9.88;1.52;;;6.80;99.90;;;;;;5070456;28;20583;-75
2023/04/25 06:07:07;;;;;;;10.43;1.65;;;6.80;99.90;;;;;;5089354;28;20398;-75
2023/04/25 06:09:32;;;;;;;9.17;1.57;;;6.90;99.90;;;;;;5059236;28;20822;-75
2023/04/25 06:11:58;;;;;;;7.85;1.48;;;7.10;99.90;;;;;;5071689;28;20432;-75
2023/04/25 06:14:23;;;;;;;9.93;1.80;;;7.10;99.90;;;;;;5070534;28;20491;-76
2023/04/25 06:16:49;;;;;;;7.43;1.40;;;7.20;99.90;;;;;;5071523;28;20424;-76
2023/04/25 06:19:15;;;;;;;6.60;1.40;;;7.30;99.90;;;;;;5070501;28;20404;-76
2023/04/25 06:21:43;;;;;;;8.77;1.25;;;7.30;99.90;;;;;;5070272;28;20398;-76
2023/04/25 06:24:09;;;;;;;7.55;1.00;;;7.40;99.90;;;;;;5069445;28;20478;-76
2023/04/25 06:26:34;;;;;;;6.70;1.20;;;7.50;99.90;;;;;;5069791;28;20485;-76
2023/04/25 06:29:00;;;;;;;6.60;1.10;;;7.50;99.90;;;;;;5052574;28;20516;-75
2023/04/25 06:31:26;;;;;;;11.32;1.23;;;7.50;99.90;;;;;;5070410;28;21021;-76
2023/04/25 06:33:54;;;;;;;8.10;1.40;;;7.50;99.90;;;;;;5099577;28;20436;-77
2023/04/25 06:36:24;;;;;;;6.78;1.25;;;7.50;99.90;;;;;;5066795;28;20751;-76
2023/04/25 06:38:51;;;;;;;8.32;1.42;;;7.50;99.90;;;;;;5067873;28;20403;-76
2023/04/25 06:41:17;;;;;;;7.25;1.25;;;7.50;99.90;;;;;;5049539;28;20457;-75
2023/04/25 06:43:42;;;;;;;9.30;1.47;;;7.60;99.90;;;;;;5065862;28;20798;-76
2023/04/25 06:46:08;;;;;;;6.97;1.00;;;7.60;99.90;;;;;;5065771;28;20404;-76
2023/04/25 06:48:33;;;;;;;10.33;1.33;;;7.80;99.90;;;;;;5049641;28;20407;-76
2023/04/25 06:50:59;;;;;;;8.48;1.13;;;7.90;99.90;;;;;;5066436;28;20529;-76
2023/04/25 06:53:25;;;;;;;6.13;0.60;;;8.10;99.90;;;;;;5065774;28;20474;-75
2023/04/25 06:55:50;;;;;;;8.00;1.60;;;8.20;99.90;;;;;;5059844;28;20530;-77
2023/04/25 06:58:17;;;;;;;9.93;1.40;;;8.30;99.90;;;;;;5060858;28;20444;-76
2023/04/25 07:00:42;;;;;;;8.68;1.17;;;8.20;99.90;;;;;;5062674;28;20408;-76
2023/04/25 07:03:08;;;;;;;9.43;1.40;;;8.20;99.90;;;;;;5064789;28;20415;-77
2023/04/25 07:05:33;;;;;;;6.97;1.35;;;8.10;99.90;;;;;;5065626;28;20453;-72
2023/04/25 07:08:00;;;;;;;9.17;1.50;;;8.00;99.90;;;;;;5065263;28;20414;-74
2023/04/25 07:10:25;;;;;;;7.73;1.27;;;7.80;99.90;;;;;;5065367;28;20415;-75
2023/04/25 07:12:51;;;;;;;5.00;0.75;;;7.70;99.90;;;;;;5065276;28;20987;-75
2023/04/25 07:15:17;;;;;;;5.97;1.05;;;7.60;99.90;;;;;;5063241;28;20431;-75
2023/04/25 07:17:42;;;;;;;5.97;0.60;;;7.50;99.90;;;;;;5064009;28;20798;-75
2023/04/25 07:20:09;;;;;;;4.32;0.52;;;7.40;99.90;;;;;;5066430;28;20495;-75
2023/04/25 07:22:34;;;;;;;4.63;0.90;;;7.30;99.90;;;;;;5041488;28;20481;-75
2023/04/25 07:25:00;;;;;;;6.90;0.80;;;7.20;99.90;;;;;;5066565;28;20819;-75
2023/04/25 07:27:26;;;;;;;7.00;1.03;;;7.10;99.90;;;;;;5066748;28;20924;-76
2023/04/25 07:29:52;;;;;;;8.13;1.50;;;7.10;99.90;;;;;;5064432;28;20932;-76
2023/04/25 07:32:17;;;;;;;6.85;0.85;;;7.10;99.90;;;;;;5066578;28;20403;-76
2023/04/25 07:34:43;;;;;;;6.10;1.00;;;7.10;99.90;;;;;;5064250;28;20431;-77
2023/04/25 07:37:08;;;;;;;6.82;0.93;;;7.20;99.90;;;;;;5065529;28;20442;-74
2023/04/25 07:39:34;;;;;;;7.80;1.30;;;7.30;99.90;;;;;;5065878;28;20522;-76
2023/04/25 07:42:02;;;;;;;8.23;0.98;;;7.40;99.90;;;;;;5048424;28;20926;-76
2023/04/25 07:44:27;;;;;;;7.60;1.30;;;7.60;99.90;;;;;;5066351;28;20983;-76
2023/04/25 07:46:53;;;;;;;5.45;0.98;;;7.70;99.90;;;;;;5067009;28;20404;-74
2023/04/25 07:49:19;;;;;;;8.55;0.98;;;7.90;99.90;;;;;;5066955;28;20421;-74
2023/04/25 07:51:45;;;;;;;7.40;1.00;;;8.00;99.90;;;;;;5067006;28;20446;-75
